Kirsten H — WY7979 — position and weather

sailwx.info

Track history (hours):
 
Tides and Currents Weather Stations Pressure Air Temp Water Temp Dewpoint Dewpoint Depression Visibility Wind Speed Wind Dir Waves Ship Positions

Kirsten H

Owner: BOYER TOWING, KETCHIKAN, AK. More information available from US FCC via Universal Licensing System and Coast Guard Vessel Documentation Center.

Last reported at 2017-May-20 18:30 UTC. Time now 2017-May-26 22:53 UTC.
Position N 52°26' W 128°28'.

Length 22 m; draft 3.7 m.

Type: Tug. MMSI: 366623050.

Date/timePositionNaut miles runAvg speedWind from/ knotsBaromVisibWave heightAir tempDewpointWater temp
2017-May-20 18:30N 52°26' W 128°28'21 5.8
2017-May-20 14:51N 52°09' W 128°08'3 7.4
2017-May-20 14:30N 52°07' W 128°08'8 6.7
2017-May-20 13:18N 52°03' W 127°56'2 5.8
2017-May-20 13:00N 52°01' W 127°56'4 7.5
2017-May-20 12:30N 51°58' W 127°56'4 7.4
2017-May-20 12:00N 51°54' W 127°56'4 7.5
2017-May-20 11:30N 51°50' W 127°55'4 7.4
2017-May-20 11:01N 51°47' W 127°56'4 7.5
2017-May-20 10:31N 51°43' W 127°55'4 7.2
2017-May-20 10:01N 51°39' W 127°54'4 7.1
2017-May-20 09:31N 51°36' W 127°53'3 6.8
2017-May-20 09:01N 51°32' W 127°52'4 7.2
2017-May-20 08:30N 51°29' W 127°51'4 7.2
2017-May-20 08:00N 51°25' W 127°51'4 7.1
2017-May-20 07:29N 51°22' W 127°53'4 7.1
2017-May-20 06:58N 51°18' W 127°53'4 7.1
2017-May-20 06:26N 51°14' W 127°52'3 7.2
2017-May-20 06:00N 51°11' W 127°51'4 7.5
2017-May-20 05:30N 51°08' W 127°48'4 7.3
2017-May-20 04:59N 51°05' W 127°44'4 7.4
2017-May-20 04:30N 51°03' W 127°39'4 7.2
2017-May-20 04:00N 51°00' W 127°36'3 6.9
2017-May-20 03:30N 50°58' W 127°31'3 6.5
2017-May-20 03:00N 50°56' W 127°27'3 6.4
2017-May-20 02:30N 50°54' W 127°23'3 6.9
2017-May-20 02:00N 50°52' W 127°19'3 6.6
2017-May-20 01:30N 50°50' W 127°15'3 6.4
2017-May-20 01:00N 50°47' W 127°12'3 6.5
2017-May-20 00:30N 50°45' W 127°08'56 7.1
2017-May-19 16:32N 50°23' W 125°47'9 7.2
2017-May-19 15:16N 50°21' W 125°32'2 6.9
2017-May-19 15:00N 50°21' W 125°30'7 7.0
2017-May-19 14:00N 50°15' W 125°23'4 8.4
2017-May-19 13:30N 50°11' W 125°22'4 7.3
2017-May-19 13:01N 50°07' W 125°21'3 6.7
2017-May-19 12:31N 50°05' W 125°17'3 6.8
2017-May-19 12:01N 50°02' W 125°14'4 7.4
2017-May-19 11:30N 49°59' W 125°12'3 5.4
2017-May-19 11:00N 49°57' W 125°09'2 4.3
2017-May-19 10:30N 49°56' W 125°06'2 4.3
2017-May-19 10:00N 49°54' W 125°04'2 3.9
2017-May-19 09:31N 49°53' W 125°02'2 3.5
2017-May-19 09:00N 49°52' W 124°59'2 3.3
2017-May-19 08:30N 49°51' W 124°57'2 3.3
2017-May-19 07:59N 49°50' W 124°55'2 3.4
2017-May-19 07:31N 49°49' W 124°53'2 3.6
2017-May-19 07:00N 49°48' W 124°51'2 4.0
2017-May-19 06:30N 49°47' W 124°48'2 4.0
2017-May-19 06:01N 49°46' W 124°46'2 4.5
2017-May-19 05:30N 49°44' W 124°43'2 4.3
2017-May-19 05:00N 49°43' W 124°40'4 6.8
2017-May-19 04:27N 49°41' W 124°36'4 8.5
2017-May-19 03:59N 49°38' W 124°31'36 8.1
2017-May-18 23:29N 49°19' W 123°44'53 7.4
2017-May-18 16:21N 48°43' W 122°45'3 7.3
2017-May-18 16:00N 48°41' W 122°43'4 7.3
2017-May-18 15:30N 48°38' W 122°44'4 7.4
2017-May-18 15:00N 48°34' W 122°45'4 7.2
2017-May-18 14:30N 48°30' W 122°44'8 7.6
2017-May-18 13:30N 48°23' W 122°45'5 7.5
2017-May-18 12:48N 48°18' W 122°46'2 7.1
2017-May-18 12:29N 48°15' W 122°47'15 8.2
2017-May-18 10:39N 48°02' W 122°37'2 9.4
2017-May-18 10:30N 48°01' W 122°36'5 9.4
2017-May-18 10:00N 47°57' W 122°32'4 8.0
2017-May-18 09:30N 47°54' W 122°28'4 8.0
2017-May-18 09:00N 47°50' W 122°27'4 8.1
2017-May-18 08:30N 47°46' W 122°25'4 8.1
2017-May-18 08:00N 47°42' W 122°27'4 8.2
2017-May-18 07:30N 47°38' W 122°27'4 8.0
2017-May-18 07:00N 47°34' W 122°26'4 7.8
2017-May-18 06:30N 47°31' W 122°29'4 7.9
2017-May-18 06:00N 47°27' W 122°31'4 7.9
2017-May-18 05:30N 47°23' W 122°32'3 6.9
2017-May-18 05:00N 47°20' W 122°33'3 4.2
2017-May-18 04:18N 47°17' W 122°33'1 3.8
2017-May-18 04:00N 47°16' W 122°33'2 4.0
2017-May-18 03:30N 47°14' W 122°35'3 5.8
2017-May-18 03:00N 47°12' W 122°37'4 1.0
2017-May-17 23:19N 47°08' W 122°39'0 0.0
2017-May-17 22:52N 47°08' W 122°39'1 0.3
2017-May-17 18:37N 47°09' W 122°39'1 4.4
2017-May-17 18:25N 47°10' W 122°38'2 4.8
2017-May-17 18:00N 47°12' W 122°36'2 5.0
2017-May-17 17:30N 47°14' W 122°35'3 5.2
2017-May-17 17:00N 47°16' W 122°33'3 5.3
2017-May-17 16:29N 47°19' W 122°33'3 5.6
2017-May-17 16:00N 47°21' W 122°33'4 7.0
2017-May-17 15:30N 47°25' W 122°32'3 7.0
2017-May-17 15:00N 47°28' W 122°31'7 7.0
2017-May-17 14:00N 47°35' W 122°26'3 6.0
2017-May-17 13:30N 47°36' W 122°22'0 0.4
2017-May-17 13:00N 47°36' W 122°22'3 0.1
2017-May-16 17:24N 47°33' W 122°20'1 1.7
2017-May-16 16:52N 47°32' W 122°20'  
Track history (hours):
 
Tides and Currents Weather Stations Pressure Air Temp Water Temp Dewpoint Dewpoint Depression Visibility Wind Speed Wind Dir Waves Ship Positions

Kirsten H

Owner: BOYER TOWING, KETCHIKAN, AK. More information available from US FCC via Universal Licensing System and Coast Guard Vessel Documentation Center.

Last reported at 2017-May-20 18:30 UTC. Time now 2017-May-26 22:53 UTC.
Position N 52°26' W 128°28'.

Length 22 m; draft 3.7 m.

Type: Tug. MMSI: 366623050.

Date/timePositionNaut miles runAvg speedWind from/ knotsBaromVisibWave heightAir tempDewpointWater temp
2017-May-20 18:30N 52°26' W 128°28'21 5.8
2017-May-20 14:51N 52°09' W 128°08'3 7.4
2017-May-20 14:30N 52°07' W 128°08'8 6.7
2017-May-20 13:18N 52°03' W 127°56'2 5.8
2017-May-20 13:00N 52°01' W 127°56'4 7.5
2017-May-20 12:30N 51°58' W 127°56'4 7.4
2017-May-20 12:00N 51°54' W 127°56'4 7.5
2017-May-20 11:30N 51°50' W 127°55'4 7.4
2017-May-20 11:01N 51°47' W 127°56'4 7.5
2017-May-20 10:31N 51°43' W 127°55'4 7.2
2017-May-20 10:01N 51°39' W 127°54'4 7.1
2017-May-20 09:31N 51°36' W 127°53'3 6.8
2017-May-20 09:01N 51°32' W 127°52'4 7.2
2017-May-20 08:30N 51°29' W 127°51'4 7.2
2017-May-20 08:00N 51°25' W 127°51'4 7.1
2017-May-20 07:29N 51°22' W 127°53'4 7.1
2017-May-20 06:58N 51°18' W 127°53'4 7.1
2017-May-20 06:26N 51°14' W 127°52'3 7.2
2017-May-20 06:00N 51°11' W 127°51'4 7.5
2017-May-20 05:30N 51°08' W 127°48'4 7.3
2017-May-20 04:59N 51°05' W 127°44'4 7.4
2017-May-20 04:30N 51°03' W 127°39'4 7.2
2017-May-20 04:00N 51°00' W 127°36'3 6.9
2017-May-20 03:30N 50°58' W 127°31'3 6.5
2017-May-20 03:00N 50°56' W 127°27'3 6.4
2017-May-20 02:30N 50°54' W 127°23'3 6.9
2017-May-20 02:00N 50°52' W 127°19'3 6.6
2017-May-20 01:30N 50°50' W 127°15'3 6.4
2017-May-20 01:00N 50°47' W 127°12'3 6.5
2017-May-20 00:30N 50°45' W 127°08'56 7.1
2017-May-19 16:32N 50°23' W 125°47'9 7.2
2017-May-19 15:16N 50°21' W 125°32'2 6.9
2017-May-19 15:00N 50°21' W 125°30'7 7.0
2017-May-19 14:00N 50°15' W 125°23'4 8.4
2017-May-19 13:30N 50°11' W 125°22'4 7.3
2017-May-19 13:01N 50°07' W 125°21'3 6.7
2017-May-19 12:31N 50°05' W 125°17'3 6.8
2017-May-19 12:01N 50°02' W 125°14'4 7.4
2017-May-19 11:30N 49°59' W 125°12'3 5.4
2017-May-19 11:00N 49°57' W 125°09'2 4.3
2017-May-19 10:30N 49°56' W 125°06'2 4.3
2017-May-19 10:00N 49°54' W 125°04'2 3.9
2017-May-19 09:31N 49°53' W 125°02'2 3.5
2017-May-19 09:00N 49°52' W 124°59'2 3.3
2017-May-19 08:30N 49°51' W 124°57'2 3.3
2017-May-19 07:59N 49°50' W 124°55'2 3.4
2017-May-19 07:31N 49°49' W 124°53'2 3.6
2017-May-19 07:00N 49°48' W 124°51'2 4.0
2017-May-19 06:30N 49°47' W 124°48'2 4.0
2017-May-19 06:01N 49°46' W 124°46'2 4.5
2017-May-19 05:30N 49°44' W 124°43'2 4.3
2017-May-19 05:00N 49°43' W 124°40'4 6.8
2017-May-19 04:27N 49°41' W 124°36'4 8.5
2017-May-19 03:59N 49°38' W 124°31'36 8.1
2017-May-18 23:29N 49°19' W 123°44'53 7.4
2017-May-18 16:21N 48°43' W 122°45'3 7.3
2017-May-18 16:00N 48°41' W 122°43'4 7.3
2017-May-18 15:30N 48°38' W 122°44'4 7.4
2017-May-18 15:00N 48°34' W 122°45'4 7.2
2017-May-18 14:30N 48°30' W 122°44'8 7.6
2017-May-18 13:30N 48°23' W 122°45'5 7.5
2017-May-18 12:48N 48°18' W 122°46'2 7.1
2017-May-18 12:29N 48°15' W 122°47'15 8.2
2017-May-18 10:39N 48°02' W 122°37'2 9.4
2017-May-18 10:30N 48°01' W 122°36'5 9.4
2017-May-18 10:00N 47°57' W 122°32'4 8.0
2017-May-18 09:30N 47°54' W 122°28'4 8.0
2017-May-18 09:00N 47°50' W 122°27'4 8.1
2017-May-18 08:30N 47°46' W 122°25'4 8.1
2017-May-18 08:00N 47°42' W 122°27'4 8.2
2017-May-18 07:30N 47°38' W 122°27'4 8.0
2017-May-18 07:00N 47°34' W 122°26'4 7.8
2017-May-18 06:30N 47°31' W 122°29'4 7.9
2017-May-18 06:00N 47°27' W 122°31'4 7.9
2017-May-18 05:30N 47°23' W 122°32'3 6.9
2017-May-18 05:00N 47°20' W 122°33'3 4.2
2017-May-18 04:18N 47°17' W 122°33'1 3.8
2017-May-18 04:00N 47°16' W 122°33'2 4.0
2017-May-18 03:30N 47°14' W 122°35'3 5.8
2017-May-18 03:00N 47°12' W 122°37'4 1.0
2017-May-17 23:19N 47°08' W 122°39'0 0.0
2017-May-17 22:52N 47°08' W 122°39'1 0.3
2017-May-17 18:37N 47°09' W 122°39'1 4.4
2017-May-17 18:25N 47°10' W 122°38'2 4.8
2017-May-17 18:00N 47°12' W 122°36'2 5.0
2017-May-17 17:30N 47°14' W 122°35'3 5.2
2017-May-17 17:00N 47°16' W 122°33'3 5.3
2017-May-17 16:29N 47°19' W 122°33'3 5.6
2017-May-17 16:00N 47°21' W 122°33'4 7.0
2017-May-17 15:30N 47°25' W 122°32'3 7.0
2017-May-17 15:00N 47°28' W 122°31'7 7.0
2017-May-17 14:00N 47°35' W 122°26'3 6.0
2017-May-17 13:30N 47°36' W 122°22'0 0.4
2017-May-17 13:00N 47°36' W 122°22'3 0.1
2017-May-16 17:24N 47°33' W 122°20'1 1.7
2017-May-16 16:52N 47°32' W 122°20'  

Dump ship's entire track history